Time;durP1;ratioP1;P1;durP2;ratioP2;P2;SDS_P1;SDS_P2;PMS_P1;PMS_P2;Temp;Humidity;BMP_temperature;BMP_pressure;BME280_temperature;BME280_humidity;BME280_pressure;Samples;Min_cycle;Max_cycle;Signal;HPM_P1;HPM_P2
2024/04/10 00:01:43;;;;;;;4.40;1.43;;;11.90;99.90;;;;;;5528706;25;20216;-58
2024/04/10 00:04:09;;;;;;;4.00;1.40;;;11.90;99.90;;;;;;5504853;25;20226;-57
2024/04/10 00:06:35;;;;;;;3.40;1.33;;;11.90;99.90;;;;;;5522548;25;20395;-53
2024/04/10 00:09:00;;;;;;;3.87;1.70;;;11.90;99.90;;;;;;5521195;25;20270;-61
2024/04/10 00:11:26;;;;;;;3.27;1.33;;;11.80;99.90;;;;;;5527233;25;20222;-63
2024/04/10 00:13:51;;;;;;;1.83;1.23;;;11.90;99.90;;;;;;5530323;25;20714;-62
2024/04/10 00:16:17;;;;;;;4.80;1.80;;;11.80;99.90;;;;;;5537514;25;20263;-62
2024/04/10 00:18:43;;;;;;;2.53;1.30;;;11.80;99.90;;;;;;5538275;25;20279;-62
2024/04/10 00:21:09;;;;;;;2.63;1.60;;;11.80;99.90;;;;;;5514579;25;20469;-62
2024/04/10 00:23:34;;;;;;;2.40;1.63;;;11.80;99.90;;;;;;5516520;25;20510;-60
2024/04/10 00:26:02;;;;;;;3.33;1.47;;;11.70;99.90;;;;;;5522117;25;20225;-62
2024/04/10 00:28:29;;;;;;;3.83;1.70;;;11.70;99.90;;;;;;5521369;25;20229;-62
2024/04/10 00:30:55;;;;;;;3.00;1.30;;;11.70;99.90;;;;;;5505472;25;21059;-61
2024/04/10 00:33:21;;;;;;;4.23;1.40;;;11.70;99.90;;;;;;5521076;26;20601;-65
2024/04/10 00:36:00;;;;;;;4.47;1.80;;;11.70;99.90;;;;;;5516131;25;20241;-58
2024/04/10 00:38:28;;;;;;;4.50;1.40;;;11.70;99.90;;;;;;5497290;26;20241;-59
2024/04/10 00:40:59;;;;;;;2.67;1.57;;;11.70;99.90;;;;;;5524335;25;20550;-59
2024/04/10 00:43:25;;;;;;;3.03;1.43;;;11.70;99.90;;;;;;5509657;26;20459;-58
2024/04/10 00:46:30;;;;;;;3.20;1.33;;;11.70;99.90;;;;;;5501247;25;20489;-62
2024/04/10 00:48:56;;;;;;;5.30;1.70;;;11.70;99.90;;;;;;5480941;26;20588;-57
2024/04/10 00:51:23;;;;;;;7.30;1.63;;;11.80;99.90;;;;;;5508005;26;20567;-61
2024/04/10 00:53:48;;;;;;;6.00;1.60;;;11.80;99.90;;;;;;5505810;25;20331;-56
2024/04/10 00:56:15;;;;;;;1.67;1.20;;;11.80;99.90;;;;;;5517559;26;20454;-56
2024/04/10 00:58:41;;;;;;;7.13;1.83;;;11.80;99.90;;;;;;5509223;25;20264;-54
2024/04/10 01:01:09;;;;;;;3.60;1.77;;;11.80;99.90;;;;;;5493891;26;20515;-53
2024/04/10 01:03:36;;;;;;;5.53;1.87;;;11.90;99.90;;;;;;5513395;25;20453;-56
2024/04/10 01:06:04;;;;;;;3.77;1.70;;;11.90;99.90;;;;;;5520382;25;20466;-60
2024/04/10 01:08:31;;;;;;;4.20;1.20;;;11.90;99.90;;;;;;5520109;25;20595;-60
2024/04/10 01:11:02;;;;;;;4.60;2.13;;;11.90;99.90;;;;;;5496710;25;20472;-61
2024/04/10 01:13:28;;;;;;;2.30;2.10;;;11.90;99.90;;;;;;5506351;26;20454;-61
2024/04/10 01:15:54;;;;;;;2.17;1.67;;;11.90;99.90;;;;;;5520111;25;20450;-60
2024/04/10 01:18:20;;;;;;;4.33;1.23;;;11.90;99.90;;;;;;5519549;25;21075;-60
2024/04/10 01:20:46;;;;;;;2.60;1.40;;;11.90;99.90;;;;;;5520267;26;20569;-60
2024/04/10 01:23:12;;;;;;;1.83;1.10;;;11.90;99.90;;;;;;5517691;25;20483;-61
2024/04/10 01:25:37;;;;;;;2.70;1.23;;;11.90;99.90;;;;;;5520479;25;20864;-61
2024/04/10 01:28:03;;;;;;;3.10;1.40;;;11.90;99.90;;;;;;5497947;25;20282;-61
2024/04/10 01:30:29;;;;;;;2.57;1.53;;;11.90;99.90;;;;;;5519497;25;20292;-57
2024/04/10 01:32:55;;;;;;;2.37;1.33;;;12.00;99.90;;;;;;5510475;25;20593;-54
2024/04/10 01:35:21;;;;;;;5.67;1.70;;;12.00;99.90;;;;;;5500777;26;20345;-60
2024/04/10 01:37:47;;;;;;;1.60;1.47;;;12.00;99.90;;;;;;5507194;26;20254;-61
2024/04/10 01:40:12;;;;;;;2.70;1.37;;;12.00;99.90;;;;;;5489098;26;20496;-60
2024/04/10 01:42:43;;;;;;;1.50;1.20;;;12.00;99.90;;;;;;5484707;26;20576;-61
2024/04/10 01:45:09;;;;;;;3.70;1.70;;;12.00;99.90;;;;;;5482433;26;20266;-60
2024/04/10 01:47:34;;;;;;;2.57;1.47;;;12.00;99.90;;;;;;5484302;26;20559;-60
2024/04/10 01:50:00;;;;;;;3.77;1.90;;;12.00;99.90;;;;;;5484602;26;20303;-61
2024/04/10 01:52:26;;;;;;;2.40;1.40;;;12.00;99.90;;;;;;5484215;26;20597;-61
2024/04/10 01:54:52;;;;;;;2.10;1.20;;;12.00;99.90;;;;;;5484700;26;20215;-61
2024/04/10 01:57:17;;;;;;;3.47;1.43;;;12.00;99.90;;;;;;5484473;26;20258;-61
2024/04/10 01:59:43;;;;;;;5.83;1.97;;;12.00;99.90;;;;;;5481643;26;21067;-61
2024/04/10 02:02:09;;;;;;;4.47;2.07;;;12.00;99.90;;;;;;5483072;26;20222;-60
2024/04/10 02:04:34;;;;;;;2.30;1.13;;;12.00;99.90;;;;;;5484717;26;20210;-61
2024/04/10 02:07:01;;;;;;;3.17;1.40;;;12.00;99.90;;;;;;5483637;26;20999;-61
2024/04/10 02:09:26;;;;;;;2.27;1.40;;;12.00;99.90;;;;;;5483851;26;20427;-61
2024/04/10 02:11:52;;;;;;;8.80;2.03;;;12.00;99.90;;;;;;5478470;26;20456;-56
2024/04/10 02:14:17;;;;;;;4.30;1.60;;;12.00;99.90;;;;;;5483528;26;20362;-60
2024/04/10 02:16:46;;;;;;;1.80;1.70;;;12.00;99.90;;;;;;5484107;26;20226;-60
2024/04/10 02:19:12;;;;;;;1.90;1.23;;;12.00;99.90;;;;;;5477072;26;20238;-61
2024/04/10 02:21:38;;;;;;;10.33;1.60;;;11.90;99.90;;;;;;5483846;26;20515;-61
2024/04/10 02:24:06;;;;;;;3.07;1.50;;;12.00;99.90;;;;;;5484145;26;20534;-61
2024/04/10 02:26:32;;;;;;;3.23;1.47;;;12.00;99.90;;;;;;5484353;26;20562;-60
2024/04/10 02:28:58;;;;;;;5.47;2.40;;;11.90;99.90;;;;;;5483745;26;20780;-62
2024/04/10 02:31:23;;;;;;;5.33;2.37;;;11.90;99.90;;;;;;5483924;26;20226;-61
2024/04/10 02:33:49;;;;;;;5.67;1.47;;;12.00;99.90;;;;;;5481342;26;20222;-61
2024/04/10 02:36:15;;;;;;;3.20;1.27;;;11.90;99.90;;;;;;5465765;26;20215;-61
2024/04/10 02:38:40;;;;;;;4.40;1.20;;;11.90;99.90;;;;;;5481356;26;20292;-60
2024/04/10 02:41:07;;;;;;;3.57;1.87;;;11.90;99.90;;;;;;5482829;26;20230;-61
2024/04/10 02:43:33;;;;;;;2.27;1.40;;;11.90;99.90;;;;;;5481237;26;20324;-57
2024/04/10 02:46:05;;;;;;;4.20;1.73;;;12.00;99.90;;;;;;5482366;26;20455;-59
2024/04/10 02:48:31;;;;;;;2.60;1.40;;;11.90;99.90;;;;;;5482738;26;20472;-57
2024/04/10 02:50:57;;;;;;;3.53;1.30;;;11.90;99.90;;;;;;5483237;26;20510;-59
2024/04/10 02:53:23;;;;;;;7.30;1.80;;;11.90;99.90;;;;;;5482489;26;20234;-56
2024/04/10 02:55:50;;;;;;;2.00;1.33;;;11.90;99.90;;;;;;5483660;26;21054;-58
2024/04/10 02:58:17;;;;;;;2.80;1.63;;;11.90;99.90;;;;;;5482915;26;20447;-60
2024/04/10 03:00:48;;;;;;;2.77;1.73;;;11.90;99.90;;;;;;5483511;26;20460;-58
2024/04/10 03:03:14;;;;;;;4.93;1.93;;;11.90;99.90;;;;;;5482957;26;20592;-57
2024/04/10 03:05:41;;;;;;;6.57;2.73;;;11.80;99.90;;;;;;5483320;26;20467;-61
2024/04/10 03:08:07;;;;;;;5.00;2.33;;;11.80;99.90;;;;;;5482963;26;20829;-56
2024/04/10 03:10:34;;;;;;;7.53;3.73;;;11.80;99.90;;;;;;5483370;26;20507;-61
2024/04/10 03:13:00;;;;;;;5.90;3.13;;;11.90;99.90;;;;;;5483072;26;20234;-59
2024/04/10 03:15:25;;;;;;;3.90;2.87;;;11.80;99.90;;;;;;5482994;26;20882;-60
2024/04/10 03:17:53;;;;;;;5.37;2.87;;;11.80;99.90;;;;;;5483469;26;20338;-58
2024/04/10 03:20:20;;;;;;;3.83;1.43;;;11.80;99.90;;;;;;5483376;26;20269;-56
2024/04/10 03:22:46;;;;;;;3.10;2.00;;;11.80;99.90;;;;;;5483282;26;20463;-57
2024/04/10 03:25:12;;;;;;;3.17;2.30;;;11.80;99.90;;;;;;5482797;26;20977;-57
2024/04/10 03:27:37;;;;;;;1.93;1.73;;;11.80;99.90;;;;;;5483141;26;20508;-61
2024/04/10 03:30:03;;;;;;;4.07;2.30;;;11.80;99.90;;;;;;5483045;26;20439;-62
2024/04/10 03:32:31;;;;;;;2.13;1.93;;;11.80;99.90;;;;;;5482921;26;20338;-61
2024/04/10 03:34:57;;;;;;;2.40;1.60;;;11.80;99.90;;;;;;5483495;26;20685;-61
2024/04/10 03:37:23;;;;;;;4.50;2.17;;;11.80;99.90;;;;;;5482539;26;20467;-60
2024/04/10 03:39:49;;;;;;;4.10;1.40;;;11.70;99.90;;;;;;5483327;26;20276;-57
2024/04/10 03:42:15;;;;;;;6.03;1.80;;;11.70;99.90;;;;;;5482446;26;20459;-57
2024/04/10 03:44:40;;;;;;;2.87;1.40;;;11.70;99.90;;;;;;5482841;26;20310;-59
2024/04/10 03:47:06;;;;;;;5.80;1.97;;;11.70;99.90;;;;;;5482601;26;20222;-55
2024/04/10 03:49:32;;;;;;;5.57;1.87;;;11.70;99.90;;;;;;5482666;26;20223;-57
2024/04/10 03:51:58;;;;;;;2.27;1.50;;;11.60;99.90;;;;;;5483328;26;20227;-57
2024/04/10 03:54:23;;;;;;;2.73;1.30;;;11.70;99.90;;;;;;5479765;26;20408;-60
2024/04/10 03:56:49;;;;;;;4.27;2.13;;;11.60;99.90;;;;;;5482718;26;20222;-59
2024/04/10 03:59:14;;;;;;;6.23;1.90;;;11.70;99.90;;;;;;5484515;26;20256;-55
2024/04/10 04:01:41;;;;;;;4.03;3.23;;;11.70;99.90;;;;;;5486202;26;20796;-55
2024/04/10 04:04:06;;;;;;;3.20;1.73;;;11.60;99.90;;;;;;5485874;26;20253;-56
2024/04/10 04:06:32;;;;;;;2.17;1.67;;;11.60;99.90;;;;;;5487261;26;20537;-58
2024/04/10 04:08:58;;;;;;;2.60;1.70;;;11.60;99.90;;;;;;5484980;26;20353;-56
2024/04/10 04:11:23;;;;;;;2.60;1.93;;;11.60;99.90;;;;;;5485420;26;20468;-56
2024/04/10 04:13:49;;;;;;;2.30;1.67;;;11.60;99.90;;;;;;5485860;26;20608;-55
2024/04/10 04:16:15;;;;;;;3.47;1.83;;;11.50;99.90;;;;;;5486176;26;20740;-59
2024/04/10 04:18:41;;;;;;;5.63;2.20;;;11.50;99.90;;;;;;5486527;26;20238;-61
2024/04/10 04:21:06;;;;;;;1.37;1.27;;;11.50;99.90;;;;;;5486362;26;20725;-60
2024/04/10 04:23:32;;;;;;;1.90;1.63;;;11.50;99.90;;;;;;5485606;26;20593;-60
2024/04/10 04:25:58;;;;;;;3.30;1.83;;;11.50;99.90;;;;;;5485923;26;20728;-60
2024/04/10 04:28:23;;;;;;;4.70;1.87;;;11.60;99.90;;;;;;5485222;26;20626;-61
2024/04/10 04:30:49;;;;;;;3.90;1.73;;;11.60;99.90;;;;;;5485961;26;20265;-60
2024/04/10 04:33:16;;;;;;;4.20;2.10;;;11.60;99.90;;;;;;5485903;26;20770;-60
2024/04/10 04:35:41;;;;;;;6.23;1.80;;;11.50;99.90;;;;;;5486841;26;20537;-62
2024/04/10 04:38:08;;;;;;;2.50;1.83;;;11.50;99.90;;;;;;5486197;26;20456;-60
2024/04/10 04:40:34;;;;;;;3.30;1.80;;;11.50;99.90;;;;;;5485862;26;20261;-60
2024/04/10 04:43:02;;;;;;;3.63;2.10;;;11.50;99.90;;;;;;5485622;26;21233;-54
2024/04/10 04:45:27;;;;;;;2.27;2.07;;;11.50;99.90;;;;;;5483078;26;20222;-54
2024/04/10 04:47:53;;;;;;;3.57;1.87;;;11.50;99.90;;;;;;5484989;26;20996;-54
2024/04/10 04:50:19;;;;;;;3.50;2.47;;;11.50;99.90;;;;;;5485784;26;20269;-60
2024/04/10 04:52:44;;;;;;;2.67;1.60;;;11.60;99.90;;;;;;5485915;26;20584;-60
2024/04/10 04:55:11;;;;;;;8.40;2.20;;;11.50;99.90;;;;;;5485834;26;20242;-60
2024/04/10 04:57:37;;;;;;;2.33;2.13;;;11.50;99.90;;;;;;5485356;26;20367;-60
2024/04/10 05:00:11;;;;;;;2.60;1.87;;;11.60;99.90;;;;;;5485835;26;20467;-61
2024/04/10 05:02:40;;;;;;;3.47;2.10;;;11.60;99.90;;;;;;5485073;26;20260;-57
2024/04/10 05:05:14;;;;;;;2.33;1.60;;;11.60;99.90;;;;;;5485558;26;20622;-60
2024/04/10 05:07:41;;;;;;;4.10;2.30;;;11.60;99.90;;;;;;5470599;26;20542;-59
2024/04/10 05:10:08;;;;;;;3.80;2.00;;;11.70;99.90;;;;;;5484815;26;20511;-61
2024/04/10 05:12:34;;;;;;;2.83;2.53;;;11.60;99.90;;;;;;5484578;26;20523;-58
2024/04/10 05:15:00;;;;;;;5.43;2.03;;;11.60;99.90;;;;;;5486054;26;20584;-56
2024/04/10 05:17:26;;;;;;;2.13;1.93;;;11.70;99.90;;;;;;5484263;26;20475;-57
2024/04/10 05:19:52;;;;;;;4.77;1.97;;;11.70;99.90;;;;;;5484780;26;20834;-60
2024/04/10 05:22:17;;;;;;;4.50;2.40;;;11.70;99.90;;;;;;5484342;26;20223;-55
2024/04/10 05:24:43;;;;;;;1.80;1.43;;;11.70;99.90;;;;;;5485239;26;20218;-56
2024/04/10 05:27:20;;;;;;;4.13;2.60;;;11.70;99.90;;;;;;5471023;26;20868;-60
2024/04/10 05:29:46;;;;;;;6.20;1.87;;;11.80;99.90;;;;;;5485097;26;20268;-58
2024/04/10 05:32:11;;;;;;;4.30;1.50;;;11.70;99.90;;;;;;5485145;26;20447;-58
2024/04/10 05:34:37;;;;;;;3.10;2.20;;;11.80;99.90;;;;;;5484932;26;20676;-58
2024/04/10 05:37:02;;;;;;;3.63;2.03;;;11.70;99.90;;;;;;5484855;26;20269;-61
2024/04/10 05:39:28;;;;;;;3.97;1.90;;;11.80;99.90;;;;;;5484662;26;20271;-55
2024/04/10 05:41:55;;;;;;;4.33;1.73;;;11.90;99.90;;;;;;5484919;26;20218;-57
2024/04/10 05:44:20;;;;;;;2.87;2.40;;;11.90;99.90;;;;;;5484661;26;20529;-57
2024/04/10 05:46:46;;;;;;;2.73;2.17;;;12.00;99.90;;;;;;5484914;26;20996;-56
2024/04/10 05:49:12;;;;;;;4.53;1.60;;;12.00;99.90;;;;;;5484830;26;20234;-58
2024/04/10 05:51:37;;;;;;;6.83;2.73;;;12.10;99.90;;;;;;5485051;26;20308;-59
2024/04/10 05:54:03;;;;;;;2.80;1.60;;;12.20;99.90;;;;;;5484743;26;20269;-55
2024/04/10 05:56:29;;;;;;;3.40;2.10;;;12.20;99.90;;;;;;5484304;26;20257;-55
2024/04/10 05:58:55;;;;;;;4.63;2.23;;;12.20;99.90;;;;;;5484996;26;20574;-58
2024/04/10 06:01:20;;;;;;;3.93;1.93;;;12.30;99.90;;;;;;5484762;26;20310;-61
2024/04/10 06:03:46;;;;;;;4.30;2.13;;;12.30;99.90;;;;;;5485013;26;20265;-61
2024/04/10 06:06:13;;;;;;;2.87;2.07;;;12.40;99.90;;;;;;5485084;26;20747;-61
2024/04/10 06:08:44;;;;;;;6.23;2.50;;;12.60;99.90;;;;;;5484094;26;20460;-61
2024/04/10 06:11:09;;;;;;;4.07;2.40;;;12.50;99.90;;;;;;5484184;26;20507;-61
2024/04/10 06:13:35;;;;;;;4.10;2.60;;;12.60;99.90;;;;;;5484224;26;20798;-61
2024/04/10 06:16:05;;;;;;;5.37;2.83;;;12.60;99.90;;;;;;5484749;26;20304;-61
2024/04/10 06:18:31;;;;;;;2.70;2.00;;;12.60;99.90;;;;;;5484241;26;20288;-61
2024/04/10 06:21:02;;;;;;;6.40;3.10;;;12.40;99.90;;;;;;5484563;26;20537;-60
2024/04/10 06:23:29;;;;;;;4.40;2.07;;;12.50;99.90;;;;;;5484742;26;20842;-57
2024/04/10 06:25:55;;;;;;;5.57;3.40;;;12.50;99.90;;;;;;5484418;26;21110;-54
2024/04/10 06:28:21;;;;;;;5.67;3.50;;;12.20;99.90;;;;;;5468668;26;20461;-60
2024/04/10 06:30:46;;;;;;;3.63;2.80;;;12.40;99.90;;;;;;5464900;26;22032;-57
2024/04/10 06:33:13;;;;;;;6.70;3.60;;;12.40;99.90;;;;;;5466662;26;20522;-60
2024/04/10 06:35:39;;;;;;;7.07;2.47;;;12.50;99.90;;;;;;5483442;26;20537;-60
2024/04/10 06:38:05;;;;;;;4.20;2.90;;;12.50;99.90;;;;;;5483491;26;20513;-55
2024/04/10 06:40:30;;;;;;;6.23;3.10;;;12.50;99.90;;;;;;5483138;26;20230;-65
2024/04/10 06:42:56;;;;;;;6.30;3.13;;;12.70;99.90;;;;;;5483898;26;20234;-58
2024/04/10 06:45:22;;;;;;;6.03;3.40;;;12.50;99.90;;;;;;5483231;26;20708;-64
2024/04/10 06:47:48;;;;;;;4.70;3.47;;;12.30;99.90;;;;;;5483303;26;20226;-60
2024/04/10 06:50:14;;;;;;;7.57;3.43;;;12.30;99.90;;;;;;5483838;26;20262;-52
2024/04/10 06:52:39;;;;;;;7.50;3.73;;;12.50;99.90;;;;;;5457346;26;20460;-60
2024/04/10 06:55:06;;;;;;;13.07;3.60;;;12.40;99.90;;;;;;5453132;26;20783;-57
2024/04/10 06:57:32;;;;;;;4.23;2.80;;;12.40;99.90;;;;;;5453850;26;20234;-58
2024/04/10 07:00:02;;;;;;;7.60;3.03;;;12.60;99.90;;;;;;5458940;26;20459;-57
2024/04/10 07:02:28;;;;;;;5.90;3.40;;;12.50;99.90;;;;;;5460164;26;20544;-59
2024/04/10 07:04:54;;;;;;;3.23;2.93;;;12.70;99.90;;;;;;5460158;26;20591;-59
2024/04/10 07:07:20;;;;;;;3.90;3.10;;;12.80;99.90;;;;;;5467303;26;20273;-59
2024/04/10 07:09:46;;;;;;;7.67;3.43;;;12.80;99.90;;;;;;5483921;26;20226;-59
2024/04/10 07:12:11;;;;;;;3.83;3.37;;;12.90;99.90;;;;;;5465646;26;20456;-58
2024/04/10 07:14:40;;;;;;;8.00;3.33;;;13.00;99.90;;;;;;5466603;26;20508;-62
2024/04/10 07:17:05;;;;;;;7.00;3.50;;;13.30;99.90;;;;;;5477794;26;20708;-60
2024/04/10 07:19:34;;;;;;;4.20;2.90;;;13.10;99.90;;;;;;5474430;26;20451;-60
2024/04/10 07:22:07;;;;;;;6.30;3.30;;;13.10;99.90;;;;;;5480710;26;20238;-61
2024/04/10 07:24:33;;;;;;;6.10;3.00;;;13.30;99.90;;;;;;5465648;26;20583;-60
2024/04/10 07:26:58;;;;;;;5.23;2.90;;;13.50;99.90;;;;;;5479290;26;20570;-60
2024/04/10 07:29:24;;;;;;;3.93;2.37;;;13.60;99.90;;;;;;5481218;26;20499;-61
2024/04/10 07:31:49;;;;;;;5.10;2.80;;;13.40;99.90;;;;;;5478277;26;20708;-60
2024/04/10 07:34:17;;;;;;;5.17;2.43;;;13.50;99.90;;;;;;5478636;26;20218;-60
2024/04/10 07:36:43;;;;;;;5.50;2.30;;;13.20;99.90;;;;;;5483336;26;20228;-60
2024/04/10 07:39:09;;;;;;;5.60;2.40;;;13.60;99.90;;;;;;5467716;26;20453;-60
2024/04/10 07:41:37;;;;;;;5.80;2.67;;;13.60;99.90;;;;;;5477693;26;20472;-60
2024/04/10 07:44:04;;;;;;;5.03;2.70;;;13.90;99.90;;;;;;5486282;26;20510;-61
2024/04/10 07:46:30;;;;;;;6.03;2.60;;;13.80;99.90;;;;;;5485993;26;20461;-60
2024/04/10 07:48:57;;;;;;;8.13;4.40;;;13.50;99.90;;;;;;5485992;26;20566;-62
2024/04/10 07:51:24;;;;;;;2.83;2.47;;;13.50;99.90;;;;;;5485877;26;20280;-61
2024/04/10 07:53:50;;;;;;;3.60;2.60;;;14.20;99.90;;;;;;5481731;26;20477;-61
2024/04/10 07:56:16;;;;;;;8.33;3.03;;;14.90;99.60;;;;;;5478295;26;20805;-60
2024/04/10 07:58:43;;;;;;;4.10;2.50;;;15.00;98.50;;;;;;5482138;26;20451;-61
2024/04/10 08:01:08;;;;;;;6.70;2.40;;;15.20;98.00;;;;;;5486240;26;20378;-61
2024/04/10 08:03:37;;;;;;;5.33;2.10;;;14.40;98.90;;;;;;5486065;26;20530;-61
2024/04/10 08:06:04;;;;;;;4.40;2.20;;;13.80;99.10;;;;;;5486248;26;20266;-61
2024/04/10 08:08:30;;;;;;;4.97;2.97;;;14.40;99.50;;;;;;5485578;26;20578;-61
2024/04/10 08:10:59;;;;;;;3.97;2.30;;;14.60;99.30;;;;;;5470326;26;20483;-60
2024/04/10 08:13:24;;;;;;;3.43;2.17;;;14.50;98.60;;;;;;5486582;26;20226;-60
2024/04/10 08:15:59;;;;;;;2.77;2.57;;;14.80;98.00;;;;;;5486310;26;20519;-60
2024/04/10 08:18:36;;;;;;;4.63;2.30;;;14.90;97.50;;;;;;5485898;26;20266;-61
2024/04/10 08:21:06;;;;;;;4.10;2.10;;;14.60;97.00;;;;;;5454853;26;20523;-62
2024/04/10 08:23:33;;;;;;;5.30;1.67;;;14.40;98.60;;;;;;5466517;26;20862;-60
2024/04/10 08:26:00;;;;;;;3.43;2.30;;;14.40;96.70;;;;;;5473439;26;20458;-64
2024/04/10 08:28:26;;;;;;;5.33;2.13;;;14.60;96.50;;;;;;5485869;26;20465;-61
2024/04/10 08:30:55;;;;;;;3.30;2.40;;;14.30;96.80;;;;;;5475952;26;20510;-61
2024/04/10 08:33:27;;;;;;;5.63;2.53;;;14.60;98.20;;;;;;5467583;26;20452;-60
2024/04/10 08:36:00;;;;;;;4.23;2.60;;;14.60;96.70;;;;;;5465797;26;20470;-62
2024/04/10 08:38:26;;;;;;;4.13;2.47;;;14.40;96.60;;;;;;5481992;26;20547;-63
2024/04/10 08:40:54;;;;;;;6.30;2.20;;;14.30;98.10;;;;;;5485530;26;20514;-61
2024/04/10 08:43:21;;;;;;;4.40;2.37;;;14.50;96.70;;;;;;5473397;26;20604;-63
2024/04/10 08:45:50;;;;;;;3.80;1.97;;;14.50;95.90;;;;;;5485313;26;20449;-59
2024/04/10 08:48:19;;;;;;;6.33;2.67;;;14.40;96.90;;;;;;5485427;26;20464;-61
2024/04/10 08:50:49;;;;;;;3.20;2.60;;;14.10;96.50;;;;;;5485330;26;20465;-61
2024/04/10 08:53:16;;;;;;;2.67;2.30;;;14.30;96.70;;;;;;5454113;26;20512;-57
2024/04/10 08:55:42;;;;;;;4.53;2.47;;;14.20;96.60;;;;;;5479309;26;20782;-62
2024/04/10 08:58:08;;;;;;;4.77;2.20;;;13.90;96.80;;;;;;5471323;26;20654;-66
2024/04/10 09:00:44;;;;;;;6.80;3.87;;;14.80;96.90;;;;;;5478628;26;20461;-61
2024/04/10 09:03:12;;;;;;;8.53;2.37;;;15.10;96.00;;;;;;5485359;26;20588;-63
2024/04/10 09:05:39;;;;;;;3.70;2.03;;;15.40;97.20;;;;;;5476256;26;20510;-62
2024/04/10 09:08:05;;;;;;;4.67;1.87;;;15.10;95.70;;;;;;5484462;26;21044;-61
2024/04/10 09:10:31;;;;;;;6.10;1.97;;;14.60;96.20;;;;;;5484836;26;20785;-61
2024/04/10 09:13:09;;;;;;;3.37;2.37;;;14.70;95.70;;;;;;5484439;26;20539;-61
2024/04/10 09:15:36;;;;;;;6.03;2.57;;;14.80;96.10;;;;;;5484967;26;20582;-62
2024/04/10 09:18:02;;;;;;;5.00;3.47;;;15.20;95.50;;;;;;5484724;26;20600;-62
2024/04/10 09:20:28;;;;;;;3.50;1.87;;;14.90;95.80;;;;;;5484393;26;20868;-61
2024/04/10 09:23:05;;;;;;;2.33;1.73;;;14.60;95.10;;;;;;5485023;26;20465;-62
2024/04/10 09:25:38;;;;;;;3.30;2.20;;;14.40;95.70;;;;;;5484035;26;20515;-62
2024/04/10 09:28:05;;;;;;;3.87;2.53;;;14.50;95.70;;;;;;5476969;26;20549;-61
2024/04/10 09:30:31;;;;;;;6.30;2.50;;;14.50;95.10;;;;;;5470831;26;20462;-62
2024/04/10 09:32:59;;;;;;;3.00;2.23;;;14.50;95.40;;;;;;5452757;26;20513;-62
2024/04/10 09:35:26;;;;;;;2.43;1.80;;;14.90;95.40;;;;;;5462655;26;20448;-61
2024/04/10 09:38:02;;;;;;;4.00;2.07;;;15.60;94.80;;;;;;5458337;26;20684;-61
2024/04/10 09:40:29;;;;;;;4.60;2.40;;;15.30;93.20;;;;;;5457352;26;20469;-60
2024/04/10 09:43:05;;;;;;;4.00;2.30;;;15.70;94.00;;;;;;5452807;26;20505;-61
2024/04/10 09:45:36;;;;;;;5.70;2.13;;;16.30;92.10;;;;;;5452094;26;21011;-62
2024/04/10 09:48:09;;;;;;;4.30;2.17;;;16.50;92.10;;;;;;5481874;26;20591;-60
2024/04/10 09:50:39;;;;;;;2.47;1.57;;;15.90;91.00;;;;;;5483520;26;20460;-61
2024/04/10 09:53:06;;;;;;;2.30;1.97;;;15.40;92.60;;;;;;5472797;26;20460;-61
2024/04/10 09:55:39;;;;;;;4.00;1.60;;;16.00;91.80;;;;;;5482710;26;20591;-62
2024/04/10 09:58:07;;;;;;;4.33;1.43;;;15.60;92.00;;;;;;5482673;26;20456;-62
2024/04/10 10:00:35;;;;;;;2.30;1.37;;;15.50;92.80;;;;;;5483082;26;20497;-62
2024/04/10 10:03:10;;;;;;;7.13;1.90;;;15.20;92.90;;;;;;5484926;26;20999;-62
2024/04/10 10:05:37;;;;;;;2.80;1.80;;;15.10;94.50;;;;;;5484232;26;20455;-62
2024/04/10 10:08:12;;;;;;;3.73;1.60;;;14.80;94.00;;;;;;5484468;26;20566;-62
2024/04/10 10:10:50;;;;;;;1.90;1.67;;;15.50;93.70;;;;;;5479403;26;20436;-61
2024/04/10 10:13:41;;;;;;;3.63;1.87;;;15.70;91.70;;;;;;5484236;26;20454;-61
2024/04/10 10:16:07;;;;;;;4.83;1.50;;;15.40;92.70;;;;;;5472879;26;20507;-63
2024/04/10 10:18:33;;;;;;;2.70;1.70;;;15.20;91.60;;;;;;5482985;26;20617;-60
2024/04/10 10:21:06;;;;;;;2.70;1.73;;;15.40;91.30;;;;;;5484110;26;20579;-61
2024/04/10 10:23:40;;;;;;;4.20;1.43;;;15.20;91.40;;;;;;5483913;26;20460;-62
2024/04/10 10:26:10;;;;;;;3.70;1.67;;;15.10;92.20;;;;;;5481035;26;20459;-63
2024/04/10 10:28:36;;;;;;;6.97;2.10;;;15.10;91.40;;;;;;5479229;26;20494;-62
2024/04/10 10:31:19;;;;;;;3.20;1.60;;;15.10;92.60;;;;;;5480123;26;20452;-61
2024/04/10 10:33:45;;;;;;;4.47;1.70;;;15.30;92.60;;;;;;5480812;26;20661;-61
2024/04/10 10:36:11;;;;;;;1.43;1.33;;;14.70;92.60;;;;;;5484069;26;20561;-60
2024/04/10 10:38:37;;;;;;;2.90;1.73;;;14.80;94.20;;;;;;5483541;26;20996;-60
2024/04/10 10:41:11;;;;;;;4.13;2.07;;;15.40;94.40;;;;;;5484285;26;20233;-63
2024/04/10 10:43:37;;;;;;;4.40;1.83;;;15.20;92.80;;;;;;5482585;26;20511;-61
2024/04/10 10:46:06;;;;;;;1.90;1.50;;;14.50;94.30;;;;;;5477279;26;20502;-62
2024/04/10 10:48:32;;;;;;;6.73;1.77;;;14.30;95.80;;;;;;5477794;26;21065;-62
2024/04/10 10:50:58;;;;;;;3.63;2.00;;;14.60;95.70;;;;;;5483908;26;20449;-62
2024/04/10 10:53:25;;;;;;;2.40;1.27;;;15.30;95.10;;;;;;5484312;26;20530;-65
2024/04/10 10:55:55;;;;;;;4.50;1.40;;;15.70;93.00;;;;;;5482433;26;20462;-65
2024/04/10 10:58:22;;;;;;;2.20;1.10;;;15.90;90.80;;;;;;5477448;26;20570;-60
2024/04/10 11:00:48;;;;;;;1.77;0.90;;;16.30;86.60;;;;;;5470670;26;20821;-59
2024/04/10 11:03:19;;;;;;;0.93;0.83;;;15.70;83.10;;;;;;5483368;26;20447;-59
2024/04/10 11:05:45;;;;;;;1.00;0.90;;;15.50;85.20;;;;;;5482325;26;20872;-63
2024/04/10 11:08:11;;;;;;;1.10;1.00;;;15.20;82.70;;;;;;5482745;26;20470;-59
2024/04/10 11:10:36;;;;;;;1.23;1.00;;;15.30;87.20;;;;;;5477940;26;20509;-62
2024/04/10 11:13:06;;;;;;;1.63;1.00;;;15.50;85.80;;;;;;5483365;26;20266;-65
2024/04/10 11:15:43;;;;;;;1.40;0.87;;;14.90;86.30;;;;;;5481926;26;20352;-62
2024/04/10 11:18:12;;;;;;;1.50;1.30;;;14.90;87.70;;;;;;5476840;26;20458;-59
2024/04/10 11:20:38;;;;;;;10.83;6.53;;;14.40;90.20;;;;;;5476098;26;20570;-65
2024/04/10 11:23:07;;;;;;;3.57;1.20;;;14.50;92.70;;;;;;5478176;26;20955;-57
2024/04/10 11:25:33;;;;;;;2.00;1.00;;;14.40;91.80;;;;;;5482577;26;20382;-64
2024/04/10 11:28:00;;;;;;;2.63;1.30;;;14.40;92.40;;;;;;5475617;26;20526;-59
2024/04/10 11:30:26;;;;;;;5.60;2.70;;;14.60;92.00;;;;;;5475227;26;20460;-65
2024/04/10 11:32:54;;;;;;;2.93;1.63;;;14.50;92.20;;;;;;5483235;26;20463;-61
2024/04/10 11:35:19;;;;;;;3.00;1.10;;;14.80;91.40;;;;;;5483134;26;20517;-62
2024/04/10 11:37:52;;;;;;;2.73;1.00;;;14.80;92.70;;;;;;5482903;26;20455;-62
2024/04/10 11:40:19;;;;;;;2.23;1.07;;;15.10;90.60;;;;;;5481882;26;20275;-62
2024/04/10 11:42:45;;;;;;;4.63;1.70;;;15.10;89.50;;;;;;5477696;26;20550;-60
2024/04/10 11:45:11;;;;;;;5.23;1.40;;;14.90;90.20;;;;;;5454944;26;20458;-60
2024/04/10 11:47:37;;;;;;;1.33;1.00;;;15.00;88.90;;;;;;5482257;26;20532;-60
2024/04/10 11:50:04;;;;;;;1.97;1.50;;;15.00;87.80;;;;;;5481171;26;20219;-61
2024/04/10 11:52:31;;;;;;;2.20;1.20;;;14.90;90.10;;;;;;5482514;26;20582;-61
2024/04/10 11:54:58;;;;;;;1.97;1.00;;;14.80;87.70;;;;;;5482117;26;20477;-60
2024/04/10 11:57:24;;;;;;;1.67;1.20;;;15.20;84.40;;;;;;5481701;26;21011;-61
2024/04/10 11:59:50;;;;;;;1.20;0.90;;;15.40;82.60;;;;;;5467901;26;20511;-61
2024/04/10 12:02:15;;;;;;;3.70;1.10;;;15.80;82.70;;;;;;5482490;26;20460;-62
2024/04/10 12:04:41;;;;;;;2.37;0.93;;;15.80;80.70;;;;;;5482294;26;20229;-61
2024/04/10 12:07:07;;;;;;;1.63;1.10;;;15.70;79.20;;;;;;5481973;26;20356;-61
2024/04/10 12:09:33;;;;;;;3.03;1.40;;;15.70;77.80;;;;;;5482528;26;20462;-61
2024/04/10 12:11:58;;;;;;;1.47;1.30;;;15.50;76.90;;;;;;5481653;26;20264;-62
2024/04/10 12:14:24;;;;;;;2.63;1.30;;;15.50;81.40;;;;;;5481628;26;20224;-62
2024/04/10 12:16:50;;;;;;;1.30;0.80;;;15.60;80.60;;;;;;5481565;26;20225;-62
2024/04/10 12:19:15;;;;;;;0.80;0.80;;;15.20;81.30;;;;;;5483179;26;20280;-62
2024/04/10 12:21:42;;;;;;;1.37;0.87;;;15.40;82.40;;;;;;5485650;26;20236;-62
2024/04/10 12:24:08;;;;;;;3.20;2.10;;;15.30;83.50;;;;;;5486041;26;20633;-62
2024/04/10 12:26:34;;;;;;;1.70;1.60;;;15.30;83.00;;;;;;5485915;26;20510;-62
2024/04/10 12:29:00;;;;;;;1.97;1.37;;;15.50;84.10;;;;;;5485440;26;20244;-62
2024/04/10 12:31:26;;;;;;;3.10;1.10;;;15.20;82.10;;;;;;5485355;26;20568;-62
2024/04/10 12:33:52;;;;;;;2.03;1.10;;;15.20;81.90;;;;;;5485889;26;20505;-62
2024/04/10 12:39:04;;;;;;;2.10;1.30;;;15.30;83.70;;;;;;5484157;26;20570;-62
2024/04/10 12:41:30;;;;;;;1.20;0.90;;;15.20;81.80;;;;;;5485621;26;20586;-62
2024/04/10 12:43:56;;;;;;;3.07;1.13;;;15.10;83.50;;;;;;5485615;26;20569;-61
2024/04/10 12:46:27;;;;;;;1.50;0.90;;;15.20;84.00;;;;;;5485809;26;20221;-61
2024/04/10 12:48:53;;;;;;;5.13;1.10;;;15.20;84.30;;;;;;5485195;26;20493;-62